Time;durP1;ratioP1;P1;durP2;ratioP2;P2;SDS_P1;SDS_P2;PMS_P1;PMS_P2;Temp;Humidity;BMP_temperature;BMP_pressure;BME280_temperature;BME280_humidity;BME280_pressure;Samples;Min_cycle;Max_cycle;Signal;HPM_P1;HPM_P2
2024/02/11 00:00:43;;;;;;;14.95;13.48;;;;;;;11.79;100.00;98531.16;5213370;28;20061;-78
2024/02/11 00:03:17;;;;;;;13.93;12.63;;;;;;;11.78;100.00;98531.31;5213208;28;20500;-79
2024/02/11 00:05:49;;;;;;;14.93;13.52;;;;;;;11.77;100.00;98535.75;5201854;28;20051;-80
2024/02/11 00:08:23;;;;;;;16.13;14.63;;;;;;;11.82;100.00;98535.19;5214417;28;20411;-80
2024/02/11 00:10:55;;;;;;;15.90;14.40;;;;;;;11.76;100.00;98541.22;5210082;28;20033;-78
2024/02/11 00:13:29;;;;;;;15.18;13.75;;;;;;;11.79;100.00;98535.59;5213376;28;20029;-80
2024/02/11 00:16:01;;;;;;;;;;;;;;;12.41;100.00;98534.63;5212308;28;20025;-80
2024/02/11 00:18:32;;;;;;;15.73;14.18;;;;;;;11.87;100.00;98532.81;5212823;28;19926;-79
2024/02/11 00:21:05;;;;;;;16.00;14.60;;;;;;;11.83;100.00;98531.56;5213281;28;20045;-80
2024/02/11 00:23:37;;;;;;;16.75;15.07;;;;;;;11.86;100.00;98529.41;5213521;28;20109;-78
2024/02/11 00:26:09;;;;;;;15.77;14.35;;;;;;;11.84;100.00;98527.97;5211365;28;20045;-78
2024/02/11 00:28:41;;;;;;;14.90;13.45;;;;;;;11.86;100.00;98528.59;5211708;28;20037;-80
2024/02/11 00:31:13;;;;;;;16.73;14.55;;;;;;;11.87;100.00;98523.13;5211229;28;20036;-79
2024/02/11 00:33:45;;;;;;;14.88;13.57;;;;;;;11.86;100.00;98513.66;5212154;28;20035;-79
2024/02/11 00:36:17;;;;;;;15.05;13.65;;;;;;;11.86;100.00;98518.91;5215536;28;20045;-80
2024/02/11 00:38:53;;;;;;;14.93;13.55;;;;;;;11.72;100.00;98495.41;5212786;28;20028;-78
2024/02/11 00:41:26;;;;;;;15.10;13.77;;;;;;;11.83;100.00;98516.66;5202578;28;20041;-80
2024/02/11 00:43:58;;;;;;;15.93;14.48;;;;;;;11.86;100.00;98511.03;5214436;28;20046;-78
2024/02/11 00:46:29;;;;;;;15.40;13.80;;;;;;;11.85;100.00;98519.09;5213187;28;20037;-79
2024/02/11 00:49:03;;;;;;;15.52;14.13;;;;;;;11.83;100.00;98506.16;5217261;28;20041;-79
2024/02/11 00:51:35;;;;;;;15.55;14.15;;;;;;;11.76;100.00;98502.69;5218303;28;20033;-79
2024/02/11 00:54:07;;;;;;;15.57;14.07;;;;;;;11.83;100.00;98506.16;5218516;28;20483;-79
2024/02/11 00:56:41;;;;;;;16.15;14.65;;;;;;;11.82;100.00;98511.56;5220329;28;20029;-79
2024/02/11 00:59:15;;;;;;;15.55;14.15;;;;;;;11.87;100.00;98514.47;5217159;28;20582;-79
2024/02/11 01:01:48;;;;;;;15.15;13.75;;;;;;;11.87;100.00;98514.47;5217802;28;20469;-79
2024/02/11 01:04:20;;;;;;;15.85;14.18;;;;;;;11.92;100.00;98512.84;5215881;28;20022;-79
2024/02/11 01:06:52;;;;;;;14.45;13.13;;;;;;;11.74;100.00;98514.34;5217580;28;20096;-79
2024/02/11 01:09:25;;;;;;;14.60;13.10;;;;;;;11.64;100.00;98519.97;5216503;28;20499;-79
2024/02/11 01:11:57;;;;;;;14.90;13.50;;;;;;;11.67;100.00;98522.22;5215004;28;20034;-79
2024/02/11 01:14:32;;;;;;;15.35;13.95;;;;;;;11.46;100.00;98491.63;5216741;28;20033;-79
2024/02/11 01:17:04;;;;;;;14.95;13.52;;;;;;;11.63;100.00;98519.16;5218338;28;20029;-79
2024/02/11 01:19:36;;;;;;;15.48;13.93;;;;;;;11.78;100.00;98515.59;5217386;28;20021;-79
2024/02/11 01:22:08;;;;;;;14.63;13.23;;;;;;;11.61;100.00;98517.72;5217898;28;20487;-79
2024/02/11 01:24:40;;;;;;;15.75;14.25;;;;;;;11.69;100.00;98513.13;5216952;28;20033;-79
2024/02/11 01:27:12;;;;;;;15.90;14.40;;;;;;;11.69;100.00;98517.56;5217791;28;20065;-79
2024/02/11 01:29:43;;;;;;;16.05;14.40;;;;;;;11.73;100.00;98508.31;5218333;28;20029;-79
2024/02/11 01:32:15;;;;;;;14.98;13.68;;;;;;;11.76;100.00;98517.59;5216484;28;20444;-79
2024/02/11 01:34:47;;;;;;;14.55;13.25;;;;;;;11.77;100.00;98520.03;5216734;28;20057;-79
2024/02/11 01:37:19;;;;;;;14.25;12.95;;;;;;;11.71;100.00;98520.81;5214050;28;20484;-79
2024/02/11 01:39:51;;;;;;;14.98;13.48;;;;;;;11.68;100.00;98514.13;5216605;28;20037;-79
2024/02/11 01:42:23;;;;;;;14.80;13.45;;;;;;;11.71;100.00;98512.16;5216764;28;20049;-79
2024/02/11 01:44:56;;;;;;;14.85;13.40;;;;;;;11.69;100.00;98513.13;5214589;28;20112;-79
2024/02/11 01:47:29;;;;;;;15.25;13.85;;;;;;;11.66;100.00;98510.09;5217287;28;20029;-79
2024/02/11 01:50:07;;;;;;;14.48;13.07;;;;;;;11.65;100.00;98506.66;5216067;28;20018;-79
2024/02/11 01:52:38;;;;;;;14.70;13.32;;;;;;;11.65;100.00;98526.81;5217028;28;20034;-79
2024/02/11 01:55:12;;;;;;;14.00;12.70;;;;;;;11.65;100.00;98513.72;5216472;28;20052;-79
2024/02/11 01:57:45;;;;;;;15.25;13.75;;;;;;;11.65;100.00;98516.34;5218593;28;20029;-79
2024/02/11 02:00:18;;;;;;;15.93;14.48;;;;;;;11.64;100.00;98510.28;5217465;28;20029;-79
2024/02/11 02:02:54;;;;;;;14.23;12.95;;;;;;;11.65;100.00;98511.91;5216375;28;20029;-79
2024/02/11 02:05:25;;;;;;;15.45;13.90;;;;;;;11.65;100.00;98505.84;5219305;28;20029;-79
2024/02/11 02:07:59;;;;;;;14.98;13.38;;;;;;;11.64;100.00;98512.09;5216298;28;20044;-79
2024/02/11 02:10:31;;;;;;;;;;;;;;;12.26;100.00;98505.09;5216677;28;20060;-79
2024/02/11 02:13:03;;;;;;;14.50;13.10;;;;;;;11.66;100.00;98503.03;5217899;28;19921;-79
2024/02/11 02:15:35;;;;;;;14.93;13.52;;;;;;;11.61;100.00;98502.81;5217406;28;20192;-78
2024/02/11 02:18:07;;;;;;;14.95;13.45;;;;;;;11.58;100.00;98499.75;5213899;28;20041;-79
2024/02/11 02:20:39;;;;;;;15.68;14.10;;;;;;;11.58;100.00;98491.88;5217158;28;20301;-79
2024/02/11 02:23:11;;;;;;;14.07;12.68;;;;;;;11.54;100.00;98474.94;5217552;28;20530;-79
2024/02/11 02:25:43;;;;;;;14.90;13.50;;;;;;;11.58;100.00;98489.25;5218138;28;20033;-79
2024/02/11 02:28:15;;;;;;;14.77;13.48;;;;;;;11.54;100.00;98486.22;5215248;28;20042;-79
2024/02/11 02:30:47;;;;;;;13.93;12.73;;;;;;;11.54;100.00;98493.28;5216857;28;20053;-79
2024/02/11 02:33:19;;;;;;;14.70;13.40;;;;;;;11.58;100.00;98484.03;5215073;28;20042;-79
2024/02/11 02:35:51;;;;;;;15.23;13.35;;;;;;;11.58;100.00;98476.16;5214811;28;20451;-79
2024/02/11 02:38:23;;;;;;;14.90;13.38;;;;;;;11.61;100.00;98483.63;5214103;28;20030;-79
2024/02/11 02:40:55;;;;;;;15.27;13.38;;;;;;;11.57;100.00;98490.28;5209041;28;20040;-79
2024/02/11 02:43:28;;;;;;;15.95;14.38;;;;;;;11.56;100.00;98478.97;5216849;28;20685;-79
2024/02/11 02:46:00;;;;;;;15.05;13.65;;;;;;;11.47;100.00;98481.94;5212678;28;20037;-79
2024/02/11 02:48:32;;;;;;;16.05;14.55;;;;;;;11.46;100.00;98483.75;5213322;28;20038;-79
2024/02/11 02:51:04;;;;;;;15.35;13.85;;;;;;;11.44;100.00;98478.72;5218727;28;20038;-79
2024/02/11 02:53:35;;;;;;;15.05;13.55;;;;;;;11.50;100.00;98486.81;5217148;28;20030;-79
2024/02/11 02:56:07;;;;;;;15.90;14.43;;;;;;;11.51;100.00;98480.56;5217249;28;20041;-79
2024/02/11 02:58:41;;;;;;;14.95;13.45;;;;;;;11.45;100.00;98477.72;5217560;28;20189;-79
2024/02/11 03:01:22;;;;;;;16.15;14.55;;;;;;;11.57;100.00;98487.66;5212979;28;20037;-79
2024/02/11 03:03:59;;;;;;;15.90;14.40;;;;;;;11.47;100.00;98487.19;5216089;28;20303;-79
2024/02/11 03:06:33;;;;;;;15.20;13.75;;;;;;;11.52;100.00;98487.44;5215555;28;20032;-79
2024/02/11 03:09:07;;;;;;;15.18;13.70;;;;;;;11.56;100.00;98492.09;5215063;28;20044;-79
2024/02/11 03:11:40;;;;;;;15.57;14.02;;;;;;;11.45;100.00;98490.00;5204979;28;20045;-79
2024/02/11 03:14:12;;;;;;;16.10;14.52;;;;;;;11.43;100.00;98489.38;5218404;28;20037;-79
2024/02/11 03:16:46;;;;;;;16.83;15.13;;;;;;;11.42;100.00;98485.97;5214333;28;20433;-79
2024/02/11 03:19:18;;;;;;;17.00;15.35;;;;;;;11.44;100.00;98494.47;5213660;28;20030;-79
2024/02/11 03:21:50;;;;;;;15.63;13.40;;;;;;;11.48;100.00;98476.53;5215970;28;20403;-79
2024/02/11 03:24:22;;;;;;;16.27;14.57;;;;;;;11.53;100.00;98487.22;5216123;28;20040;-79
2024/02/11 03:26:54;;;;;;;16.27;14.77;;;;;;;11.53;100.00;98487.22;5212661;28;20037;-79
2024/02/11 03:29:26;;;;;;;16.83;15.15;;;;;;;11.51;100.00;98481.34;5202680;28;20229;-79
2024/02/11 03:31:58;;;;;;;16.40;14.75;;;;;;;11.52;100.00;98479.56;5215708;28;20104;-79
2024/02/11 03:34:30;;;;;;;16.20;14.70;;;;;;;11.54;100.00;98485.41;5214356;28;20403;-79
2024/02/11 03:37:01;;;;;;;19.05;14.85;;;;;;;11.51;100.00;98478.72;5212545;28;20056;-79
2024/02/11 03:39:34;;;;;;;17.13;15.32;;;;;;;11.54;100.00;98488.84;5212755;28;20029;-79
2024/02/11 03:42:06;;;;;;;16.95;15.45;;;;;;;11.57;100.00;98496.31;5214649;28;20039;-79
2024/02/11 03:44:38;;;;;;;16.13;14.65;;;;;;;11.57;100.00;98498.16;5215585;28;20373;-79
2024/02/11 03:47:10;;;;;;;16.35;14.82;;;;;;;11.56;100.00;98496.53;5217180;28;20034;-79
2024/02/11 03:49:42;;;;;;;16.92;15.32;;;;;;;11.55;100.00;98489.66;5215225;28;20029;-79
2024/02/11 03:52:15;;;;;;;16.95;15.40;;;;;;;11.58;100.00;98495.31;5215518;28;20041;-79
2024/02/11 03:54:47;;;;;;;18.10;16.33;;;;;;;11.55;100.00;98498.31;5217144;28;20221;-79
2024/02/11 03:57:19;;;;;;;17.98;16.27;;;;;;;11.56;100.00;98496.53;5216902;28;20036;-79
2024/02/11 03:59:51;;;;;;;18.80;16.83;;;;;;;11.56;100.00;98497.34;5214557;28;20036;-79
2024/02/11 04:02:23;;;;;;;18.80;16.90;;;;;;;11.56;100.00;98509.66;5215554;28;20203;-79
2024/02/11 04:04:55;;;;;;;20.35;18.35;;;;;;;11.57;100.00;98508.63;5215439;28;20036;-79
2024/02/11 04:07:27;;;;;;;20.38;18.48;;;;;;;11.53;100.00;98513.44;5212265;28;20411;-79
2024/02/11 04:10:17;;;;;;;21.40;19.40;;;;;;;11.52;100.00;98514.47;5214860;28;20041;-79
2024/02/11 04:12:53;;;;;;;21.77;19.70;;;;;;;11.50;100.00;98516.47;5211692;28;20053;-79
2024/02/11 04:15:25;;;;;;;21.77;19.77;;;;;;;11.45;100.00;98514.41;5213084;28;20394;-80
2024/02/11 04:18:07;;;;;;;20.40;18.40;;;;;;;11.48;100.00;98518.47;5214585;28;20178;-79
2024/02/11 04:20:39;;;;;;;20.48;18.58;;;;;;;11.49;100.00;98527.94;5215855;28;20040;-79
2024/02/11 04:23:11;;;;;;;20.58;18.55;;;;;;;11.48;100.00;98520.25;5212517;28;20033;-79
2024/02/11 04:25:45;;;;;;;20.17;18.43;;;;;;;11.52;100.00;98521.53;5215852;28;20052;-79
2024/02/11 04:28:20;;;;;;;18.05;16.35;;;;;;;11.50;100.00;98523.50;5211655;28;20423;-79
2024/02/11 04:30:52;;;;;;;17.70;16.10;;;;;;;11.49;100.00;98520.09;5212734;28;20040;-79
2024/02/11 04:33:24;;;;;;;16.70;15.20;;;;;;;11.48;100.00;98523.72;5215197;28;20029;-79
2024/02/11 04:36:00;;;;;;;16.95;15.43;;;;;;;11.53;100.00;98525.75;5214591;28;20942;-79
2024/02/11 04:38:34;;;;;;;16.55;15.00;;;;;;;11.51;100.00;98528.56;5213937;28;20033;-79
2024/02/11 04:41:05;;;;;;;16.88;15.27;;;;;;;11.54;100.00;98538.66;5211903;28;20040;-79
2024/02/11 04:43:37;;;;;;;14.82;13.43;;;;;;;11.52;100.00;98539.88;5208707;28;20033;-79
2024/02/11 04:46:09;;;;;;;14.95;13.57;;;;;;;11.48;100.00;98533.38;5212470;28;20038;-79
2024/02/11 04:48:43;;;;;;;15.07;13.70;;;;;;;11.51;100.00;98540.84;5214273;28;20034;-79
2024/02/11 04:51:15;;;;;;;11.18;10.00;;;;;;;11.47;100.00;98547.50;5217318;28;20033;-79
2024/02/11 04:53:47;;;;;;;9.10;8.30;;;;;;;11.44;100.00;98551.31;5215956;28;20033;-79
2024/02/11 04:56:19;;;;;;;7.45;6.75;;;;;;;11.37;100.00;98561.75;5212055;28;20041;-79
2024/02/11 04:58:52;;;;;;;6.43;5.82;;;;;;;11.36;100.00;98570.59;5212718;28;20029;-79
2024/02/11 05:01:24;;;;;;;5.78;5.28;;;;;;;11.37;100.00;98568.81;5212145;28;20499;-80
2024/02/11 05:03:55;;;;;;;6.28;5.68;;;;;;;11.31;100.00;98578.25;5210967;28;20047;-79
2024/02/11 05:06:27;;;;;;;6.10;5.47;;;;;;;11.29;100.00;98580.25;5213961;28;20567;-79
2024/02/11 05:09:00;;;;;;;6.88;6.18;;;;;;;11.17;100.00;98579.13;5212342;28;20041;-79
2024/02/11 05:11:32;;;;;;;9.18;8.13;;;;;;;11.14;100.00;98587.41;5214541;28;20506;-79
2024/02/11 05:14:07;;;;;;;10.10;9.07;;;;;;;11.10;100.00;98599.22;5215320;28;20036;-79
2024/02/11 05:16:41;;;;;;;11.57;10.38;;;;;;;11.02;100.00;98604.59;5216251;28;20036;-79
2024/02/11 05:19:14;;;;;;;11.20;9.77;;;;;;;10.91;100.00;98609.38;5210810;28;20383;-79
2024/02/11 05:21:48;;;;;;;10.80;9.70;;;;;;;10.77;100.00;98612.84;5213985;28;20041;-79
2024/02/11 05:24:20;;;;;;;;;;;;;;;11.23;100.00;98609.84;5216432;28;20033;-79
2024/02/11 05:26:52;;;;;;;11.20;10.05;;;;;;;10.70;100.00;98618.00;5213713;28;20298;-79
2024/02/11 05:29:24;;;;;;;12.90;11.68;;;;;;;10.63;100.00;98629.41;5211529;28;20042;-79
2024/02/11 05:31:56;;;;;;;13.75;12.10;;;;;;;10.54;100.00;98635.75;5216808;28;20051;-79
2024/02/11 05:34:28;;;;;;;13.93;12.52;;;;;;;10.42;100.00;98636.22;5217945;28;20038;-79
2024/02/11 05:37:00;;;;;;;13.55;12.25;;;;;;;10.35;100.00;98650.22;5217322;28;20411;-79
2024/02/11 05:39:32;;;;;;;14.07;12.48;;;;;;;10.28;100.00;98646.72;5218119;28;20026;-79
2024/02/11 05:42:11;;;;;;;15.18;13.68;;;;;;;10.21;100.00;98651.81;5217041;28;20037;-79
2024/02/11 05:44:43;;;;;;;15.27;13.68;;;;;;;10.14;100.00;98645.69;5216056;28;20145;-79
2024/02/11 05:47:15;;;;;;;16.20;14.43;;;;;;;10.09;100.00;98643.63;5216593;28;20562;-79
2024/02/11 05:49:47;;;;;;;18.05;14.00;;;;;;;10.18;100.00;98663.47;5217518;28;20542;-79
2024/02/11 05:52:20;;;;;;;14.50;13.02;;;;;;;10.12;100.00;98666.81;5218877;28;20041;-79
2024/02/11 05:54:52;;;;;;;15.02;12.60;;;;;;;10.05;100.00;98663.28;5218433;28;20033;-79
2024/02/11 05:57:24;;;;;;;13.18;11.77;;;;;;;10.03;100.00;98669.69;5207240;28;20197;-79
2024/02/11 05:59:57;;;;;;;13.13;11.73;;;;;;;10.04;100.00;98676.53;5216757;28;20399;-79
2024/02/11 06:02:29;;;;;;;13.15;11.65;;;;;;;10.04;100.00;98684.38;5216176;28;20030;-79
2024/02/11 06:05:01;;;;;;;14.60;10.93;;;;;;;10.06;100.00;98683.22;5218171;28;20033;-79
2024/02/11 06:07:37;;;;;;;13.98;10.70;;;;;;;9.97;100.00;98685.13;5215807;28;20040;-79
2024/02/11 06:10:11;;;;;;;12.07;9.85;;;;;;;9.97;100.00;98692.97;5215561;28;20054;-79
2024/02/11 06:12:45;;;;;;;13.02;9.20;;;;;;;9.88;100.00;98685.34;5218390;28;20025;-79
2024/02/11 06:15:23;;;;;;;11.32;8.63;;;;;;;9.95;100.00;98691.50;5216290;28;20029;-79
2024/02/11 06:17:58;;;;;;;11.27;8.20;;;;;;;9.95;100.00;98696.75;5211049;28;20045;-79
2024/02/11 06:20:32;;;;;;;10.38;7.93;;;;;;;9.91;100.00;98688.44;5217657;28;20129;-79
2024/02/11 06:23:05;;;;;;;9.68;7.70;;;;;;;9.88;100.00;98699.25;5217355;28;20366;-79
2024/02/11 06:25:37;;;;;;;;;;;;;;;10.50;100.00;98702.56;5214419;28;20395;-79
2024/02/11 06:28:08;;;;;;;10.30;8.43;;;;;;;10.01;100.00;98710.94;5217829;28;19921;-81
2024/02/11 06:30:41;;;;;;;13.15;7.80;;;;;;;9.87;100.00;98709.91;5216196;28;20029;-80
2024/02/11 06:33:13;;;;;;;11.17;7.80;;;;;;;9.87;100.00;98709.91;5216696;28;20032;-79
2024/02/11 06:35:45;;;;;;;8.98;6.50;;;;;;;9.84;100.00;98726.75;5217905;28;20508;-79
2024/02/11 06:38:17;;;;;;;9.85;6.60;;;;;;;9.85;100.00;98731.00;5215929;28;20376;-79
2024/02/11 06:40:48;;;;;;;10.65;6.38;;;;;;;9.82;100.00;98728.75;5218569;28;20170;-79
2024/02/11 06:43:21;;;;;;;8.05;6.05;;;;;;;9.82;100.00;98727.94;5215062;28;20498;-79
2024/02/11 06:45:53;;;;;;;8.77;6.40;;;;;;;9.83;100.00;98737.41;5216254;28;20025;-79
2024/02/11 06:48:27;;;;;;;8.48;6.13;;;;;;;9.82;100.00;98744.44;5215619;28;20040;-79
2024/02/11 06:51:01;;;;;;;8.82;6.28;;;;;;;9.81;100.00;98757.66;5213984;28;20033;-79
2024/02/11 06:53:33;;;;;;;9.85;6.60;;;;;;;9.77;100.00;98759.00;5206525;28;20046;-79
2024/02/11 06:56:07;;;;;;;12.27;6.40;;;;;;;9.75;100.00;98761.81;5215308;28;20049;-79
2024/02/11 06:58:41;;;;;;;8.63;5.55;;;;;;;9.76;100.00;98779.13;5217115;28;20041;-79
2024/02/11 07:01:13;;;;;;;8.48;6.03;;;;;;;9.74;100.00;98784.53;5214146;28;20502;-79
2024/02/11 07:03:47;;;;;;;10.48;6.25;;;;;;;9.71;100.00;98784.06;5217063;28;20036;-79
2024/02/11 07:06:18;;;;;;;11.23;6.82;;;;;;;9.76;100.00;98786.97;5217455;28;20037;-79
2024/02/11 07:08:50;;;;;;;11.27;6.40;;;;;;;9.76;100.00;98794.81;5202114;28;20045;-78
2024/02/11 07:11:22;;;;;;;10.07;5.68;;;;;;;9.69;100.00;98797.31;5210787;28;20037;-79
2024/02/11 07:13:54;;;;;;;9.95;5.85;;;;;;;9.70;100.00;98795.53;5205073;28;20513;-79
2024/02/11 07:16:28;;;;;;;13.02;6.55;;;;;;;9.65;100.00;98803.06;5213780;28;20048;-79
2024/02/11 07:18:59;;;;;;;7.95;5.50;;;;;;;9.68;100.00;98805.34;5215220;28;20037;-79
2024/02/11 07:21:31;;;;;;;10.90;6.03;;;;;;;9.73;100.00;98809.03;5213885;28;20035;-79
2024/02/11 07:24:04;;;;;;;10.90;5.53;;;;;;;9.72;100.00;98806.63;5217084;28;20041;-79
2024/02/11 07:26:36;;;;;;;10.43;5.53;;;;;;;9.78;100.00;98815.56;5220610;28;20033;-79
2024/02/11 07:29:09;;;;;;;10.00;4.95;;;;;;;9.80;100.00;98814.41;5216356;28;20193;-79
2024/02/11 07:31:41;;;;;;;10.35;5.80;;;;;;;9.81;100.00;98812.59;5217087;28;20040;-79
2024/02/11 07:34:14;;;;;;;11.07;5.68;;;;;;;9.72;100.00;98814.47;5219076;28;20328;-79
2024/02/11 07:36:46;;;;;;;11.53;6.13;;;;;;;9.80;100.00;98821.44;5216619;28;20041;-79
2024/02/11 07:39:18;;;;;;;11.98;6.20;;;;;;;9.77;100.00;98824.38;5217236;28;20510;-79
2024/02/11 07:41:50;;;;;;;11.47;6.67;;;;;;;9.79;100.00;98831.09;5217743;28;20041;-79
2024/02/11 07:44:23;;;;;;;9.15;5.72;;;;;;;9.82;100.00;98830.75;5212469;28;20498;-79
2024/02/11 07:46:57;;;;;;;14.25;6.85;;;;;;;9.85;100.00;98837.41;5216079;28;20025;-79
2024/02/11 07:49:29;;;;;;;12.23;6.57;;;;;;;9.84;100.00;98849.66;5211405;28;20118;-79
2024/02/11 07:52:01;;;;;;;13.85;7.15;;;;;;;9.83;100.00;98847.25;5216088;28;20041;-79
2024/02/11 07:54:33;;;;;;;15.40;7.15;;;;;;;9.86;100.00;98846.91;5214912;28;20377;-79
2024/02/11 07:57:05;;;;;;;13.63;8.20;;;;;;;9.85;100.00;98848.69;5216937;28;20029;-79
2024/02/11 07:59:38;;;;;;;14.13;7.53;;;;;;;9.82;100.00;98851.66;5215636;28;20056;-79
2024/02/11 08:02:10;;;;;;;14.30;7.35;;;;;;;9.84;100.00;98857.50;5211639;28;20457;-79
2024/02/11 08:04:42;;;;;;;13.07;7.43;;;;;;;9.81;100.00;98862.28;5212121;28;20037;-78
2024/02/11 08:07:13;;;;;;;13.45;7.07;;;;;;;9.79;100.00;98851.19;5213829;28;20052;-79
2024/02/11 08:09:45;;;;;;;16.70;8.18;;;;;;;9.84;100.00;98854.91;5207156;28;20033;-79
2024/02/11 08:12:17;;;;;;;18.80;7.93;;;;;;;9.85;100.00;98860.94;5213684;28;20034;-79
2024/02/11 08:14:49;;;;;;;13.55;7.30;;;;;;;9.88;100.00;98850.94;5209657;28;20614;-79
2024/02/11 08:17:21;;;;;;;17.25;7.90;;;;;;;9.88;100.00;98855.38;5207259;28;20052;-79
2024/02/11 08:19:53;;;;;;;17.45;8.30;;;;;;;9.90;100.00;98862.06;5203706;28;20057;-79
2024/02/11 08:22:25;;;;;;;15.15;7.97;;;;;;;9.94;100.00;98863.34;5210537;28;20073;-79
2024/02/11 08:24:57;;;;;;;17.95;8.27;;;;;;;9.94;100.00;98865.16;5213601;28;20060;-79
2024/02/11 08:27:32;;;;;;;16.98;7.88;;;;;;;9.97;100.00;98875.25;5214881;28;20030;-79
2024/02/11 08:30:12;;;;;;;14.10;7.70;;;;;;;10.01;100.00;98888.81;5211944;28;20026;-79
2024/02/11 08:32:44;;;;;;;13.88;8.00;;;;;;;9.90;100.00;98888.22;5214534;28;20403;-79
2024/02/11 08:35:16;;;;;;;14.68;7.68;;;;;;;9.88;100.00;98882.34;5212206;28;20046;-79
2024/02/11 08:37:48;;;;;;;13.18;7.05;;;;;;;9.94;100.00;98894.72;5212382;28;20763;-79
2024/02/11 08:40:19;;;;;;;14.50;7.72;;;;;;;9.95;100.00;98883.25;5198877;28;20042;-79
2024/02/11 08:42:51;;;;;;;12.38;7.35;;;;;;;9.98;100.00;98898.63;5212060;28;20034;-79
2024/02/11 08:45:24;;;;;;;13.95;7.32;;;;;;;9.92;100.00;98883.59;5214032;28;20179;-79
2024/02/11 08:47:56;;;;;;;16.75;7.80;;;;;;;10.01;100.00;98896.66;5211047;28;20037;-79
2024/02/11 08:50:29;;;;;;;13.85;7.15;;;;;;;10.08;100.00;98905.44;5215151;28;20029;-79
2024/02/11 08:53:01;;;;;;;18.60;8.25;;;;;;;10.04;100.00;98906.75;5209933;28;20387;-79
2024/02/11 08:55:33;;;;;;;17.80;8.52;;;;;;;10.03;100.00;98902.50;5215886;28;20042;-78
2024/02/11 08:58:05;;;;;;;23.00;8.30;;;;;;;10.07;100.00;98911.63;5214152;28;20044;-78
2024/02/11 09:00:37;;;;;;;15.07;7.43;;;;;;;10.10;100.00;98914.72;5211443;28;20037;-78
2024/02/11 09:03:10;;;;;;;15.38;7.75;;;;;;;10.13;100.00;98921.41;5202210;28;20283;-78
2024/02/11 09:05:43;;;;;;;19.17;7.95;;;;;;;10.20;100.00;98923.16;5200783;28;20757;-78
2024/02/11 09:08:15;;;;;;;15.57;8.27;;;;;;;10.17;100.00;98923.50;5206960;28;20037;-78
2024/02/11 09:10:48;;;;;;;17.15;7.93;;;;;;;10.17;100.00;98922.69;5214961;28;20049;-78
2024/02/11 09:13:21;;;;;;;14.32;7.75;;;;;;;10.16;100.00;98924.50;5212734;28;20367;-78
2024/02/11 09:15:53;;;;;;;12.87;6.93;;;;;;;10.20;100.00;98919.75;5218556;28;20491;-78
2024/02/11 09:18:25;;;;;;;15.27;7.43;;;;;;;10.19;100.00;98931.16;5215942;28;20076;-78
2024/02/11 09:20:58;;;;;;;14.85;7.97;;;;;;;10.20;100.00;98936.25;5214834;28;20029;-78
2024/02/11 09:23:29;;;;;;;15.68;7.47;;;;;;;10.24;100.00;98932.28;5214303;28;20040;-78
2024/02/11 09:26:02;;;;;;;12.88;7.18;;;;;;;10.16;100.00;98921.06;5216118;28;20038;-79
2024/02/11 09:28:34;;;;;;;17.05;7.40;;;;;;;10.27;100.00;98928.56;5215206;28;20025;-79
2024/02/11 09:31:08;;;;;;;15.45;7.13;;;;;;;10.26;100.00;98929.53;5214031;28;20340;-79
2024/02/11 09:33:40;;;;;;;15.52;7.50;;;;;;;10.31;100.00;98924.59;5211011;28;20042;-79
2024/02/11 09:36:13;;;;;;;15.02;7.70;;;;;;;10.35;100.00;98927.69;5217367;28;20695;-79
2024/02/11 09:38:46;;;;;;;14.77;7.38;;;;;;;10.31;100.00;98924.59;5214720;28;20304;-79
2024/02/11 09:41:18;;;;;;;14.30;7.55;;;;;;;10.40;100.00;98938.44;5217909;28;20048;-79
2024/02/11 09:43:52;;;;;;;14.15;7.30;;;;;;;10.34;100.00;98933.88;5216712;28;20030;-79
2024/02/11 09:46:46;;;;;;;17.48;7.60;;;;;;;10.43;100.00;98941.50;5218195;28;20030;-79
2024/02/11 09:49:20;;;;;;;17.55;7.22;;;;;;;10.41;100.00;98948.72;5217339;28;20037;-79
2024/02/11 09:51:54;;;;;;;13.63;7.07;;;;;;;10.38;100.00;98956.09;5215190;28;20033;-79
2024/02/11 09:54:29;;;;;;;12.88;6.63;;;;;;;10.46;100.00;98950.81;5217347;28;20033;-79
2024/02/11 09:57:01;;;;;;;15.63;7.38;;;;;;;10.48;100.00;98948.81;5217717;28;20541;-79
2024/02/11 09:59:33;;;;;;;17.08;7.35;;;;;;;10.52;100.00;98952.72;5218827;28;20033;-79
2024/02/11 10:02:16;;;;;;;13.18;6.93;;;;;;;10.62;100.00;98947.25;5216577;28;20201;-79
2024/02/11 10:04:53;;;;;;;15.40;7.30;;;;;;;10.58;100.00;98956.47;5218165;28;20064;-79
2024/02/11 10:07:25;;;;;;;18.52;6.97;;;;;;;10.57;100.00;98960.03;5213794;28;20033;-79
2024/02/11 10:09:57;;;;;;;13.18;6.47;;;;;;;10.56;100.00;98958.41;5215307;28;20022;-79
2024/02/11 10:12:29;;;;;;;19.25;7.72;;;;;;;10.61;100.00;98961.34;5217710;28;20025;-79
2024/02/11 10:15:03;;;;;;;14.45;7.28;;;;;;;10.63;100.00;98964.59;5219125;28;20037;-79
2024/02/11 10:17:36;;;;;;;19.38;7.32;;;;;;;10.58;100.00;98965.13;5214856;28;20026;-79
2024/02/11 10:20:09;;;;;;;16.27;7.68;;;;;;;10.56;100.00;98966.28;5213974;28;20407;-79
2024/02/11 10:22:42;;;;;;;16.50;7.15;;;;;;;10.59;100.00;98968.56;5215726;28;20030;-79
2024/02/11 10:25:16;;;;;;;17.75;7.28;;;;;;;10.63;100.00;98980.28;5213368;28;20040;-79
2024/02/11 10:27:48;;;;;;;15.55;6.38;;;;;;;10.61;100.00;98974.44;5218479;28;20036;-79
2024/02/11 10:30:20;;;;;;;14.73;7.15;;;;;;;10.66;100.00;98977.34;5213225;28;20026;-79
2024/02/11 10:32:58;;;;;;;15.93;6.75;;;;;;;10.75;100.00;98973.63;5211581;28;20049;-79
2024/02/11 10:35:30;;;;;;;14.68;5.97;;;;;;;10.71;100.00;98973.19;5214901;28;20044;-79
2024/02/11 10:38:06;;;;;;;13.05;6.38;;;;;;;10.82;100.00;98973.75;5212064;28;20042;-79
2024/02/11 10:40:40;;;;;;;17.73;6.90;;;;;;;10.77;100.00;98965.63;5210982;28;20083;-79
2024/02/11 10:43:15;;;;;;;14.80;6.78;;;;;;;10.86;100.00;98981.06;5211290;28;20530;-79
2024/02/11 10:45:47;;;;;;;15.15;6.68;;;;;;;10.97;100.00;98985.06;5209946;28;20392;-79
2024/02/11 10:48:22;;;;;;;12.82;5.57;;;;;;;11.00;100.00;98976.88;5214944;28;20042;-79
2024/02/11 10:51:10;;;;;;;15.23;6.10;;;;;;;11.29;100.00;98994.44;5208176;28;20483;-79
2024/02/11 10:53:48;;;;;;;16.42;6.72;;;;;;;11.20;100.00;98993.69;5210437;28;20049;-79
2024/02/11 10:56:21;;;;;;;12.68;5.80;;;;;;;11.16;100.00;98987.19;5216212;28;20033;-79
2024/02/11 10:59:20;;;;;;;14.43;5.70;;;;;;;11.45;100.00;98991.63;5205368;28;20029;-79
2024/02/11 11:01:55;;;;;;;13.73;6.25;;;;;;;11.19;100.00;98975.53;5205824;28;20068;-79
2024/02/11 11:04:28;;;;;;;17.30;6.15;;;;;;;11.17;100.00;99001.94;5210709;28;20037;-79
2024/02/11 11:07:02;;;;;;;12.30;5.30;;;;;;;11.27;100.00;98993.78;5217146;28;20033;-79
2024/02/11 11:09:34;;;;;;;14.07;5.32;;;;;;;11.33;100.00;98990.47;5215274;28;20486;-79
2024/02/11 11:12:09;;;;;;;14.35;5.28;;;;;;;11.37;100.00;98976.00;5214910;28;20498;-79
2024/02/11 11:14:45;;;;;;;14.15;6.13;;;;;;;11.35;100.00;98980.59;5213382;28;20029;-79
2024/02/11 11:17:17;;;;;;;12.45;5.40;;;;;;;11.49;100.00;98989.47;5211644;28;20178;-79
2024/02/11 11:19:50;;;;;;;13.60;5.32;;;;;;;11.51;100.00;98990.06;5211403;28;20030;-79
2024/02/11 11:22:33;;;;;;;15.57;4.97;;;;;;;11.74;100.00;98989.97;5210829;28;20042;-79
2024/02/11 11:25:12;;;;;;;12.20;5.78;;;;;;;11.79;100.00;98987.63;5210715;28;20044;-79
2024/02/11 11:27:44;;;;;;;18.70;5.45;;;;;;;11.71;100.00;98984.31;5213878;28;20033;-79
2024/02/11 11:30:17;;;;;;;12.15;5.25;;;;;;;11.73;100.00;98988.34;5215306;28;20044;-79
2024/02/11 11:32:50;;;;;;;14.02;6.30;;;;;;;11.83;100.00;98991.53;5211661;28;20037;-79
2024/02/11 11:35:21;;;;;;;8.93;4.15;;;;;;;11.81;100.00;98993.50;5210009;28;20050;-79
2024/02/11 11:37:58;;;;;;;13.40;4.90;;;;;;;11.93;100.00;98994.69;5209712;28;20040;-79
2024/02/11 11:40:36;;;;;;;15.48;5.40;;;;;;;11.79;100.00;98992.88;5212586;28;20032;-79
2024/02/11 11:43:16;;;;;;;10.38;4.60;;;;;;;12.00;100.00;98994.75;5213026;28;20045;-79